Time;durP1;ratioP1;P1;durP2;ratioP2;P2;SDS_P1;SDS_P2;PMS_P1;PMS_P2;Temp;Humidity;BMP_temperature;BMP_pressure;BME280_temperature;BME280_humidity;BME280_pressure;Samples;Min_cycle;Max_cycle;Signal;HPM_P1;HPM_P2
2023/08/05 00:00:00;;;;;;;4.90;4.50;;;14.80;99.90;;;;;;5066005;28;20281;-69
2023/08/05 00:02:25;;;;;;;5.50;4.73;;;14.70;99.90;;;;;;5082467;28;20241;-69
2023/08/05 00:04:51;;;;;;;4.60;4.20;;;14.70;99.90;;;;;;5030506;28;20239;-68
2023/08/05 00:07:17;;;;;;;8.63;4.87;;;14.70;99.90;;;;;;5064707;28;20177;-69
2023/08/05 00:09:42;;;;;;;5.20;4.73;;;14.70;99.90;;;;;;5046377;28;20181;-69
2023/08/05 00:12:08;;;;;;;4.80;4.10;;;14.60;99.90;;;;;;5064203;28;20186;-68
2023/08/05 00:14:34;;;;;;;5.53;4.70;;;14.60;99.90;;;;;;5064578;28;20185;-69
2023/08/05 00:17:00;;;;;;;4.63;4.27;;;14.50;99.90;;;;;;5063560;28;20181;-68
2023/08/05 00:19:26;;;;;;;6.57;5.10;;;14.60;99.90;;;;;;5046179;28;20516;-69
2023/08/05 00:21:51;;;;;;;5.73;5.23;;;14.60;99.90;;;;;;5045603;28;20419;-68
2023/08/05 00:24:17;;;;;;;5.53;4.70;;;14.60;99.90;;;;;;5029622;28;20192;-69
2023/08/05 00:26:43;;;;;;;4.73;4.33;;;14.60;99.90;;;;;;5063775;28;20255;-68
2023/08/05 00:29:09;;;;;;;6.90;5.30;;;14.60;99.90;;;;;;5068727;28;20267;-69
2023/08/05 00:31:35;;;;;;;8.40;6.53;;;14.70;99.90;;;;;;5065699;28;20173;-68
2023/08/05 00:34:00;;;;;;;5.07;4.50;;;14.70;99.90;;;;;;5065414;28;20180;-68
2023/08/05 00:36:26;;;;;;;7.50;4.80;;;14.70;99.90;;;;;;5066167;28;20554;-69
2023/08/05 00:38:52;;;;;;;7.07;4.63;;;14.70;99.90;;;;;;5066027;28;20356;-69
2023/08/05 00:41:18;;;;;;;5.70;5.17;;;14.70;99.90;;;;;;5084093;28;20259;-69
2023/08/05 00:43:44;;;;;;;5.90;4.47;;;14.70;99.90;;;;;;5066567;28;20177;-69
2023/08/05 00:46:11;;;;;;;5.60;5.10;;;14.70;99.90;;;;;;5065814;28;20418;-69
2023/08/05 00:48:38;;;;;;;5.80;5.30;;;14.70;99.90;;;;;;5082373;28;20211;-68
2023/08/05 00:51:06;;;;;;;5.97;5.40;;;14.80;99.90;;;;;;5065199;28;20422;-69
2023/08/05 00:53:32;;;;;;;6.17;5.27;;;14.90;99.90;;;;;;5048612;28;20419;-69
2023/08/05 00:55:58;;;;;;;6.43;5.83;;;15.00;99.90;;;;;;5082841;28;20411;-69
2023/08/05 00:58:24;;;;;;;6.77;5.73;;;15.00;99.90;;;;;;5065729;28;20469;-69
2023/08/05 01:00:50;;;;;;;6.20;5.60;;;14.90;99.90;;;;;;5064543;28;20172;-69
2023/08/05 01:03:16;;;;;;;6.37;5.77;;;15.00;99.90;;;;;;5083789;28;20468;-69
2023/08/05 01:05:44;;;;;;;6.87;6.27;;;15.00;99.90;;;;;;5064748;28;20414;-69
2023/08/05 01:08:11;;;;;;;5.90;5.40;;;15.00;99.90;;;;;;5083738;28;20414;-69
2023/08/05 01:10:38;;;;;;;8.23;6.13;;;15.10;99.90;;;;;;5064799;28;20995;-69
2023/08/05 01:13:04;;;;;;;7.50;6.10;;;15.10;99.90;;;;;;5064966;28;20764;-69
2023/08/05 01:15:29;;;;;;;7.60;6.37;;;15.10;99.90;;;;;;5083359;28;20414;-69
2023/08/05 01:17:56;;;;;;;6.87;6.17;;;15.20;99.90;;;;;;5064384;28;20700;-69
2023/08/05 01:20:30;;;;;;;6.43;5.83;;;15.20;99.90;;;;;;5083304;28;20182;-69
2023/08/05 01:23:07;;;;;;;9.00;6.40;;;15.10;99.90;;;;;;5064565;28;21141;-69
2023/08/05 01:25:34;;;;;;;6.83;6.13;;;15.20;99.90;;;;;;5065266;28;20418;-69
2023/08/05 01:28:01;;;;;;;9.03;5.97;;;15.20;99.90;;;;;;5081283;28;20419;-69
2023/08/05 01:30:28;;;;;;;6.40;5.80;;;15.20;99.90;;;;;;5065449;28;20423;-69
2023/08/05 01:32:55;;;;;;;6.93;5.63;;;15.20;99.90;;;;;;5081988;28;20422;-69
2023/08/05 01:35:21;;;;;;;6.23;5.60;;;15.20;99.90;;;;;;5065401;28;20441;-68
2023/08/05 01:37:47;;;;;;;6.70;5.50;;;15.20;99.90;;;;;;5082341;28;20538;-68
2023/08/05 01:40:13;;;;;;;7.03;5.57;;;15.20;99.90;;;;;;5060696;28;20525;-69
2023/08/05 01:42:39;;;;;;;6.83;5.47;;;15.30;99.90;;;;;;5074739;28;20192;-69
2023/08/05 01:45:05;;;;;;;5.70;5.20;;;15.20;99.90;;;;;;5083331;28;20426;-69
2023/08/05 01:47:31;;;;;;;7.17;5.93;;;15.20;99.90;;;;;;5060925;28;20285;-67
2023/08/05 01:49:57;;;;;;;6.20;5.60;;;15.10;99.90;;;;;;5038752;28;20415;-68
2023/08/05 01:52:22;;;;;;;6.13;5.53;;;15.10;99.90;;;;;;5082992;28;20208;-68
2023/08/05 01:54:48;;;;;;;6.20;5.60;;;15.10;99.90;;;;;;5063717;28;20180;-68
2023/08/05 01:57:14;;;;;;;7.33;5.90;;;15.10;99.90;;;;;;5048180;28;20203;-68
2023/08/05 01:59:39;;;;;;;6.07;5.50;;;15.10;99.90;;;;;;5082951;28;20226;-68
2023/08/05 02:02:05;;;;;;;6.23;5.73;;;15.00;99.90;;;;;;5083068;28;20260;-68
2023/08/05 02:04:31;;;;;;;6.93;6.10;;;15.00;99.90;;;;;;5065110;28;20635;-68
2023/08/05 02:06:56;;;;;;;6.70;5.90;;;15.00;99.90;;;;;;5085926;28;20204;-68
2023/08/05 02:09:22;;;;;;;9.23;5.70;;;14.90;99.90;;;;;;5087331;28;20188;-68
2023/08/05 02:11:48;;;;;;;7.23;6.53;;;14.90;99.90;;;;;;5086704;28;20184;-67
2023/08/05 02:14:13;;;;;;;7.43;6.23;;;14.90;99.90;;;;;;5087507;28;20656;-68
2023/08/05 02:16:39;;;;;;;6.90;6.20;;;14.90;99.90;;;;;;5086585;28;20181;-68
2023/08/05 02:19:05;;;;;;;8.10;6.03;;;15.00;99.90;;;;;;5088229;28;20799;-68
2023/08/05 02:21:30;;;;;;;7.40;6.00;;;15.00;99.90;;;;;;5087262;28;20226;-68
2023/08/05 02:23:56;;;;;;;6.90;5.47;;;14.90;99.90;;;;;;5086255;28;20177;-68
2023/08/05 02:26:22;;;;;;;7.90;5.80;;;15.00;99.90;;;;;;5086851;28;20269;-67
2023/08/05 02:28:48;;;;;;;8.20;5.60;;;14.90;99.90;;;;;;5083978;28;20249;-68
2023/08/05 02:31:14;;;;;;;8.10;5.97;;;14.90;99.90;;;;;;5066479;28;20319;-68
2023/08/05 02:33:40;;;;;;;6.27;5.57;;;14.90;99.90;;;;;;5065883;28;20173;-67
2023/08/05 02:36:06;;;;;;;6.27;5.67;;;14.90;99.90;;;;;;5066307;28;20415;-68
2023/08/05 02:38:32;;;;;;;7.50;6.50;;;14.90;99.90;;;;;;5066450;28;20462;-68
2023/08/05 02:40:58;;;;;;;7.57;6.17;;;14.80;99.90;;;;;;5065960;28;20422;-68
2023/08/05 02:43:24;;;;;;;6.87;6.17;;;14.80;99.90;;;;;;5070041;28;20463;-68
2023/08/05 02:45:54;;;;;;;6.53;6.03;;;14.70;99.90;;;;;;5071499;28;20529;-68
2023/08/05 02:48:24;;;;;;;6.60;5.90;;;14.70;99.90;;;;;;5066111;28;20250;-68
2023/08/05 02:50:51;;;;;;;6.30;5.57;;;14.70;99.90;;;;;;5065519;28;20586;-68
2023/08/05 02:53:17;;;;;;;6.90;6.23;;;14.60;99.90;;;;;;5066182;28;20512;-68
2023/08/05 02:55:43;;;;;;;6.27;5.70;;;14.60;99.90;;;;;;5065198;28;20451;-68
2023/08/05 02:58:09;;;;;;;6.00;5.10;;;14.60;99.90;;;;;;5073798;28;20578;-68
2023/08/05 03:00:35;;;;;;;6.70;5.57;;;14.50;99.90;;;;;;5077121;28;20196;-68
2023/08/05 03:03:01;;;;;;;6.70;5.90;;;14.50;99.90;;;;;;5074314;28;20188;-68
2023/08/05 03:05:26;;;;;;;5.80;5.20;;;14.40;99.90;;;;;;5075019;28;20435;-68
2023/08/05 03:07:52;;;;;;;5.77;5.27;;;14.40;99.90;;;;;;5074379;28;20184;-68
2023/08/05 03:10:18;;;;;;;5.93;5.33;;;14.30;99.90;;;;;;5076446;28;20687;-67
2023/08/05 03:12:43;;;;;;;5.63;5.07;;;14.30;99.90;;;;;;5073207;28;20181;-68
2023/08/05 03:15:09;;;;;;;8.30;5.80;;;14.30;99.90;;;;;;5079457;28;20275;-68
2023/08/05 03:17:35;;;;;;;5.40;4.87;;;14.30;99.90;;;;;;5066731;28;20337;-68
2023/08/05 03:20:05;;;;;;;6.83;5.87;;;14.30;99.90;;;;;;5085810;28;20414;-68
2023/08/05 03:22:34;;;;;;;11.00;5.70;;;14.30;99.90;;;;;;5085997;28;20259;-68
2023/08/05 03:25:00;;;;;;;5.87;5.37;;;14.40;99.90;;;;;;5085562;28;20415;-68
2023/08/05 03:27:26;;;;;;;6.07;5.47;;;14.40;99.90;;;;;;5086142;28;21196;-68
2023/08/05 03:29:52;;;;;;;6.13;5.53;;;14.40;99.90;;;;;;5084955;28;20448;-68
2023/08/05 03:32:17;;;;;;;5.77;5.27;;;14.30;99.90;;;;;;5082055;28;20192;-67
2023/08/05 03:34:43;;;;;;;5.50;5.00;;;14.30;99.90;;;;;;5065008;28;20193;-68
2023/08/05 03:37:09;;;;;;;5.43;4.97;;;14.20;99.90;;;;;;5073333;28;20268;-68
2023/08/05 03:39:34;;;;;;;5.33;4.67;;;14.10;99.90;;;;;;5084580;28;21001;-68
2023/08/05 03:42:00;;;;;;;5.03;4.63;;;14.00;99.90;;;;;;5085364;28;20256;-68
2023/08/05 03:44:26;;;;;;;5.27;4.83;;;14.00;99.90;;;;;;5085348;28;20177;-67
2023/08/05 03:46:51;;;;;;;4.20;3.90;;;13.90;99.90;;;;;;5085770;28;20210;-68
2023/08/05 03:49:17;;;;;;;4.67;4.27;;;13.90;99.90;;;;;;5076518;28;20279;-68
2023/08/05 03:51:43;;;;;;;4.93;4.50;;;13.90;99.90;;;;;;5084903;28;20783;-68
2023/08/05 03:54:09;;;;;;;3.50;3.20;;;13.90;99.90;;;;;;5086806;28;20234;-68
2023/08/05 03:56:34;;;;;;;4.30;3.77;;;13.90;99.90;;;;;;5069001;28;20423;-67
2023/08/05 03:59:00;;;;;;;5.10;3.90;;;13.90;99.90;;;;;;5064773;28;20792;-68
2023/08/05 04:01:26;;;;;;;4.50;4.10;;;13.80;99.90;;;;;;5064908;28;20242;-68
2023/08/05 04:03:52;;;;;;;3.90;3.60;;;13.90;99.90;;;;;;5064205;28;20545;-68
2023/08/05 04:06:20;;;;;;;5.33;4.23;;;13.90;99.90;;;;;;5064767;28;20426;-68
2023/08/05 04:08:48;;;;;;;5.47;4.40;;;13.80;99.90;;;;;;5064221;28;21220;-68
2023/08/05 04:11:14;;;;;;;4.90;4.50;;;13.80;99.90;;;;;;5046886;28;20427;-68
2023/08/05 04:13:40;;;;;;;5.90;4.43;;;13.80;99.90;;;;;;5063867;28;20450;-68
2023/08/05 04:16:08;;;;;;;12.60;5.93;;;13.90;99.90;;;;;;5064453;28;20815;-68
2023/08/05 04:18:36;;;;;;;5.20;4.70;;;13.80;99.90;;;;;;5063849;28;20267;-68
2023/08/05 04:21:08;;;;;;;5.47;5.00;;;13.90;99.90;;;;;;5064541;28;20483;-68
2023/08/05 04:23:34;;;;;;;5.77;5.07;;;13.90;99.90;;;;;;5064160;28;20941;-68
2023/08/05 04:26:01;;;;;;;5.23;4.83;;;14.00;99.90;;;;;;5064136;28;20435;-70
2023/08/05 04:28:27;;;;;;;5.07;4.57;;;13.90;99.90;;;;;;5063846;28;20426;-68
2023/08/05 04:30:53;;;;;;;7.50;5.37;;;13.90;99.90;;;;;;5083242;28;20418;-68
2023/08/05 04:33:19;;;;;;;5.77;5.00;;;13.90;99.90;;;;;;5084601;28;20253;-68
2023/08/05 04:35:49;;;;;;;6.33;4.40;;;13.90;99.90;;;;;;5083476;28;20407;-68
2023/08/05 04:38:18;;;;;;;6.10;5.03;;;13.90;99.90;;;;;;5084460;28;20474;-68
2023/08/05 04:40:45;;;;;;;7.00;5.60;;;13.90;99.90;;;;;;5081517;28;20419;-68
2023/08/05 04:43:11;;;;;;;5.70;5.20;;;13.90;99.90;;;;;;5062851;28;20423;-68
2023/08/05 04:45:37;;;;;;;9.40;5.50;;;13.90;99.90;;;;;;5063078;28;20792;-68
2023/08/05 04:48:05;;;;;;;5.37;4.87;;;13.90;99.90;;;;;;5064056;28;20443;-68
2023/08/05 04:50:31;;;;;;;10.90;7.50;;;14.00;99.90;;;;;;5063433;28;20781;-68
2023/08/05 04:52:57;;;;;;;7.87;6.10;;;13.90;99.90;;;;;;5064070;28;20420;-68
2023/08/05 04:55:22;;;;;;;7.20;6.50;;;14.00;99.90;;;;;;5063746;28;20177;-68
2023/08/05 04:57:52;;;;;;;7.20;6.40;;;14.00;99.90;;;;;;5063129;28;20211;-68
2023/08/05 05:00:19;;;;;;;8.63;7.07;;;14.10;99.90;;;;;;5063566;28;20200;-68
2023/08/05 05:02:45;;;;;;;10.37;6.47;;;14.20;99.90;;;;;;5063251;28;20419;-68
2023/08/05 05:05:11;;;;;;;8.40;6.83;;;14.30;99.90;;;;;;5063383;28;20894;-68
2023/08/05 05:07:36;;;;;;;10.07;8.20;;;14.30;99.90;;;;;;5062994;28;20411;-68
2023/08/05 05:10:02;;;;;;;9.17;7.97;;;14.20;99.90;;;;;;5063657;28;20503;-68
2023/08/05 05:12:28;;;;;;;10.03;9.03;;;14.20;99.90;;;;;;5063367;28;20189;-68
2023/08/05 05:14:53;;;;;;;13.27;9.60;;;14.30;99.90;;;;;;5063273;28;20181;-68
2023/08/05 05:17:19;;;;;;;15.20;10.33;;;14.30;99.90;;;;;;5062973;28;20177;-68
2023/08/05 05:19:45;;;;;;;12.30;10.00;;;14.40;99.90;;;;;;5062914;28;20251;-68
2023/08/05 05:22:16;;;;;;;10.63;8.83;;;14.50;99.90;;;;;;5064011;28;20181;-68
2023/08/05 05:24:41;;;;;;;10.50;9.30;;;14.50;99.90;;;;;;5062795;28;20184;-68
2023/08/05 05:27:08;;;;;;;10.17;9.03;;;14.60;99.90;;;;;;5065443;28;20419;-69
2023/08/05 05:29:35;;;;;;;12.30;9.73;;;14.70;99.90;;;;;;5071080;28;20192;-68
2023/08/05 05:32:00;;;;;;;14.30;9.90;;;14.70;99.90;;;;;;5083758;28;20487;-68
2023/08/05 05:34:26;;;;;;;11.70;10.20;;;14.80;99.90;;;;;;5083077;28;20419;-68
2023/08/05 05:36:51;;;;;;;11.93;9.80;;;14.80;99.90;;;;;;5081304;28;20177;-68
2023/08/05 05:39:17;;;;;;;12.80;10.30;;;14.80;99.90;;;;;;5071565;28;20216;-68
2023/08/05 05:41:43;;;;;;;11.17;9.50;;;14.90;99.90;;;;;;5073436;28;20179;-68
2023/08/05 05:44:09;;;;;;;14.43;10.33;;;15.00;99.90;;;;;;5083348;28;20414;-68
2023/08/05 05:46:35;;;;;;;12.00;10.30;;;15.00;99.90;;;;;;5082491;28;20849;-68
2023/08/05 05:49:03;;;;;;;15.03;9.50;;;15.10;99.90;;;;;;5080636;28;20196;-68
2023/08/05 05:51:28;;;;;;;12.23;10.93;;;15.20;99.90;;;;;;5077812;28;20218;-68
2023/08/05 05:53:55;;;;;;;12.50;10.50;;;15.20;99.90;;;;;;5074272;28;20458;-68
2023/08/05 05:56:21;;;;;;;18.60;10.43;;;15.30;99.90;;;;;;5083375;28;20180;-68
2023/08/05 05:58:47;;;;;;;11.53;10.23;;;15.40;99.90;;;;;;5082803;28;20469;-68
2023/08/05 06:01:13;;;;;;;12.30;10.60;;;15.50;99.90;;;;;;5083292;28;20180;-68
2023/08/05 06:03:40;;;;;;;13.10;10.27;;;15.70;99.90;;;;;;5082575;28;20180;-68
2023/08/05 06:06:06;;;;;;;11.40;9.70;;;15.80;99.90;;;;;;5082815;28;20437;-68
2023/08/05 06:08:31;;;;;;;10.87;9.70;;;16.00;99.90;;;;;;5082369;28;20423;-68
2023/08/05 06:11:03;;;;;;;12.03;9.60;;;16.10;99.90;;;;;;5083075;28;20189;-68
2023/08/05 06:13:30;;;;;;;12.20;9.50;;;16.20;99.90;;;;;;5083030;28;20206;-68
2023/08/05 06:15:55;;;;;;;12.27;9.20;;;16.40;99.90;;;;;;5082937;28;20415;-68
2023/08/05 06:18:21;;;;;;;11.10;8.80;;;16.60;99.90;;;;;;5081978;28;20457;-69
2023/08/05 06:20:48;;;;;;;13.37;8.53;;;16.80;99.90;;;;;;5055026;28;20235;-68
2023/08/05 06:23:14;;;;;;;12.07;8.80;;;17.00;99.90;;;;;;5079553;28;20251;-69
2023/08/05 06:25:40;;;;;;;9.70;7.93;;;17.20;99.90;;;;;;5081980;28;20466;-69
2023/08/05 06:28:06;;;;;;;9.87;8.60;;;17.30;99.90;;;;;;5082872;28;20423;-68
2023/08/05 06:30:32;;;;;;;9.80;8.00;;;17.40;99.90;;;;;;5065371;28;20426;-69
2023/08/05 06:32:57;;;;;;;8.60;7.43;;;17.30;99.90;;;;;;5062657;28;20675;-68
2023/08/05 06:35:23;;;;;;;10.47;7.40;;;17.20;99.90;;;;;;5062688;28;20185;-68
2023/08/05 06:37:49;;;;;;;11.00;7.40;;;17.20;99.90;;;;;;5062243;28;20248;-68
2023/08/05 06:40:15;;;;;;;9.70;7.90;;;17.10;99.90;;;;;;5065037;28;20187;-68
2023/08/05 06:42:41;;;;;;;9.40;7.70;;;17.00;99.90;;;;;;5071437;28;20184;-68
2023/08/05 06:45:08;;;;;;;9.07;7.17;;;17.00;99.90;;;;;;5047962;28;20436;-68
2023/08/05 06:47:35;;;;;;;9.50;8.50;;;17.00;99.90;;;;;;5061492;28;20288;-68
2023/08/05 06:50:06;;;;;;;7.60;6.67;;;17.10;99.90;;;;;;5062677;28;20431;-68
2023/08/05 06:52:33;;;;;;;9.77;8.10;;;17.20;99.90;;;;;;5064476;28;20905;-68
2023/08/05 06:55:01;;;;;;;8.70;7.33;;;17.30;99.90;;;;;;5066997;28;20443;-68
2023/08/05 06:57:27;;;;;;;10.00;8.47;;;17.50;99.90;;;;;;5065696;28;20518;-68
2023/08/05 06:59:53;;;;;;;6.93;6.23;;;17.70;99.90;;;;;;5067754;28;20472;-68
2023/08/05 07:02:19;;;;;;;7.30;5.70;;;17.90;99.90;;;;;;5066678;28;20173;-68
2023/08/05 07:04:44;;;;;;;7.83;6.40;;;18.00;99.90;;;;;;5047519;28;20769;-68
2023/08/05 07:07:10;;;;;;;7.83;5.70;;;18.20;99.90;;;;;;5066140;28;20181;-68
2023/08/05 07:09:37;;;;;;;9.50;7.53;;;18.30;99.90;;;;;;5065161;28;20682;-69
2023/08/05 07:12:03;;;;;;;9.47;7.33;;;18.30;99.90;;;;;;5066380;28;20443;-68
2023/08/05 07:14:28;;;;;;;8.90;6.50;;;18.20;99.90;;;;;;5065259;28;20227;-68
2023/08/05 07:16:54;;;;;;;10.03;7.90;;;18.10;99.90;;;;;;5047933;28;20268;-68
2023/08/05 07:19:20;;;;;;;8.73;6.47;;;18.00;99.90;;;;;;5077506;28;20219;-68
2023/08/05 07:21:45;;;;;;;7.50;6.30;;;18.10;99.90;;;;;;5085863;28;20180;-68
2023/08/05 07:24:11;;;;;;;9.33;6.90;;;18.00;99.90;;;;;;5085716;28;20173;-68
2023/08/05 07:26:37;;;;;;;8.80;7.90;;;18.00;99.90;;;;;;5085257;28;20203;-68
2023/08/05 07:29:02;;;;;;;8.40;7.10;;;17.90;99.90;;;;;;5081571;28;20339;-68
2023/08/05 07:31:28;;;;;;;10.40;7.83;;;17.80;99.90;;;;;;5064844;28;20914;-68
2023/08/05 07:33:54;;;;;;;10.40;8.50;;;17.70;99.90;;;;;;5047300;28;20169;-68
2023/08/05 07:36:22;;;;;;;10.37;9.30;;;17.70;99.90;;;;;;5065108;28;20189;-68
2023/08/05 07:38:50;;;;;;;9.87;8.87;;;17.60;99.90;;;;;;5066956;28;20608;-68
2023/08/05 07:41:16;;;;;;;18.17;14.00;;;17.70;99.90;;;;;;5068416;28;20641;-68
2023/08/05 07:43:42;;;;;;;17.20;13.73;;;17.70;99.90;;;;;;5069198;28;20526;-68
2023/08/05 07:46:11;;;;;;;15.07;13.10;;;17.80;99.90;;;;;;5084418;28;20511;-68
2023/08/05 07:48:39;;;;;;;18.60;16.80;;;17.80;99.90;;;;;;5067706;28;20503;-68
2023/08/05 07:51:06;;;;;;;20.17;18.07;;;17.80;99.90;;;;;;5078198;28;20454;-68
2023/08/05 07:53:36;;;;;;;18.90;16.93;;;17.80;99.90;;;;;;5080490;28;20490;-68
2023/08/05 07:56:12;;;;;;;20.30;18.10;;;17.90;99.90;;;;;;5083480;28;20542;-68
2023/08/05 07:58:42;;;;;;;20.07;17.90;;;17.90;99.90;;;;;;5060660;28;20470;-68
2023/08/05 08:01:08;;;;;;;20.33;18.13;;;17.90;99.90;;;;;;5083617;28;20426;-68
2023/08/05 08:03:34;;;;;;;22.00;19.07;;;17.90;99.90;;;;;;5086002;28;20507;-68
2023/08/05 08:06:00;;;;;;;22.53;18.30;;;17.90;99.90;;;;;;5087630;28;20447;-68
2023/08/05 08:08:26;;;;;;;22.17;17.47;;;17.90;99.90;;;;;;5086718;28;21114;-68
2023/08/05 08:10:52;;;;;;;19.43;17.20;;;17.90;99.90;;;;;;5080908;28;20431;-68
2023/08/05 08:13:17;;;;;;;20.67;18.37;;;17.90;99.90;;;;;;5080676;28;20267;-68
2023/08/05 08:15:43;;;;;;;18.67;16.67;;;18.00;99.90;;;;;;5079126;28;20184;-68
2023/08/05 08:18:09;;;;;;;20.20;17.90;;;18.00;99.90;;;;;;5087250;28;20242;-68
2023/08/05 08:20:34;;;;;;;19.17;17.10;;;18.00;99.90;;;;;;5086816;28;20177;-68
2023/08/05 08:23:00;;;;;;;17.87;16.03;;;18.10;99.90;;;;;;5087227;28;20212;-68
2023/08/05 08:25:26;;;;;;;18.60;16.80;;;18.10;99.90;;;;;;5086420;28;20202;-68
2023/08/05 08:27:51;;;;;;;18.67;15.10;;;18.20;99.90;;;;;;5087551;28;20699;-68
2023/08/05 08:30:17;;;;;;;17.50;15.80;;;18.10;99.90;;;;;;5054388;28;20654;-69
2023/08/05 08:32:43;;;;;;;18.10;16.00;;;18.10;99.90;;;;;;5065660;28;20260;-68
2023/08/05 08:35:08;;;;;;;18.47;16.47;;;18.10;99.90;;;;;;5067781;28;20649;-68
2023/08/05 08:37:34;;;;;;;16.03;14.33;;;18.00;99.90;;;;;;5065917;28;20204;-68
2023/08/05 08:40:00;;;;;;;19.97;15.37;;;18.00;99.90;;;;;;5067241;28;20275;-68
2023/08/05 08:42:26;;;;;;;18.47;16.23;;;18.00;99.90;;;;;;5066006;28;20185;-68
2023/08/05 08:44:56;;;;;;;19.33;14.93;;;18.00;99.90;;;;;;5066551;28;20181;-68
2023/08/05 08:47:23;;;;;;;15.20;13.60;;;18.10;99.90;;;;;;5074714;28;20439;-68
2023/08/05 08:49:52;;;;;;;15.53;12.73;;;18.20;99.90;;;;;;5077544;28;20434;-68
2023/08/05 08:52:18;;;;;;;13.70;12.23;;;18.20;99.90;;;;;;5068102;28;20442;-68
2023/08/05 08:54:44;;;;;;;15.53;11.50;;;18.20;99.90;;;;;;5077650;28;20466;-68
2023/08/05 08:57:13;;;;;;;12.00;10.77;;;18.20;99.90;;;;;;5061504;28;20441;-68
2023/08/05 08:59:39;;;;;;;13.70;12.30;;;18.30;99.90;;;;;;5080247;28;20485;-69
2023/08/05 09:02:12;;;;;;;14.63;10.90;;;18.30;99.90;;;;;;5076809;28;20427;-69
2023/08/05 09:04:42;;;;;;;12.73;10.47;;;18.50;99.90;;;;;;5080213;28;20430;-69
2023/08/05 09:07:09;;;;;;;13.83;12.27;;;18.50;99.90;;;;;;5083745;28;20430;-69
2023/08/05 09:09:35;;;;;;;15.87;12.33;;;18.60;99.90;;;;;;5074500;28;20423;-69
2023/08/05 09:12:02;;;;;;;11.90;10.03;;;18.70;99.90;;;;;;5082936;28;21077;-69
2023/08/05 09:14:28;;;;;;;13.33;11.93;;;18.70;99.90;;;;;;5081663;28;20187;-69
2023/08/05 09:17:00;;;;;;;11.50;10.30;;;18.80;99.90;;;;;;5083210;28;20437;-69
2023/08/05 09:19:29;;;;;;;11.33;10.23;;;18.90;99.90;;;;;;5083082;28;20349;-69
2023/08/05 09:21:55;;;;;;;11.30;10.17;;;18.90;99.90;;;;;;5083702;28;21229;-68
2023/08/05 09:24:24;;;;;;;10.53;9.53;;;19.00;99.90;;;;;;5082777;28;20422;-69
2023/08/05 09:26:55;;;;;;;11.00;9.90;;;19.10;99.90;;;;;;5083411;28;20427;-68
2023/08/05 09:29:22;;;;;;;10.40;9.30;;;19.10;99.90;;;;;;5083142;28;20437;-69
2023/08/05 09:31:58;;;;;;;11.53;9.50;;;19.10;99.90;;;;;;5083582;28;21031;-68
2023/08/05 09:34:39;;;;;;;10.20;9.13;;;19.10;99.90;;;;;;5082448;28;20483;-69
2023/08/05 09:37:06;;;;;;;11.27;10.00;;;19.20;99.90;;;;;;5083625;28;20815;-69
2023/08/05 09:39:47;;;;;;;12.33;10.77;;;19.20;99.90;;;;;;5082744;28;20860;-69
2023/08/05 09:42:27;;;;;;;12.30;10.10;;;19.20;99.90;;;;;;5083252;28;20442;-69
2023/08/05 09:44:55;;;;;;;11.93;9.83;;;19.20;99.90;;;;;;5083190;28;20418;-69
2023/08/05 09:47:25;;;;;;;11.07;10.00;;;19.40;99.90;;;;;;5064496;28;20430;-69
2023/08/05 09:49:52;;;;;;;9.97;9.03;;;19.50;99.90;;;;;;5083408;28;20812;-70
2023/08/05 09:52:21;;;;;;;9.37;8.43;;;19.60;99.90;;;;;;5082683;28;20430;-68
2023/08/05 09:54:52;;;;;;;10.70;9.70;;;19.60;99.90;;;;;;5083124;28;20464;-69
2023/08/05 09:57:20;;;;;;;10.73;9.73;;;19.60;99.90;;;;;;5082721;28;20454;-68
2023/08/05 09:59:47;;;;;;;10.53;9.53;;;19.70;99.90;;;;;;5083415;28;20914;-69
2023/08/05 10:02:18;;;;;;;10.50;9.40;;;19.90;99.90;;;;;;5084151;28;20786;-68
2023/08/05 10:04:45;;;;;;;12.03;10.30;;;19.90;99.90;;;;;;5062701;28;20505;-69
2023/08/05 10:07:14;;;;;;;10.90;9.80;;;19.90;99.90;;;;;;5080586;28;20437;-69
2023/08/05 10:09:40;;;;;;;10.43;9.40;;;19.90;99.90;;;;;;5071830;28;20521;-69
2023/08/05 10:12:08;;;;;;;12.17;10.73;;;19.90;99.90;;;;;;5063071;28;20419;-69
2023/08/05 10:14:34;;;;;;;10.00;9.00;;;19.80;99.90;;;;;;5062054;28;20430;-69
2023/08/05 10:17:01;;;;;;;11.60;10.33;;;19.80;99.90;;;;;;5063002;28;20420;-69
2023/08/05 10:19:28;;;;;;;12.10;10.73;;;19.90;99.90;;;;;;5062069;28;20220;-69
2023/08/05 10:22:07;;;;;;;10.47;9.57;;;19.90;99.90;;;;;;5062625;28;20431;-68
2023/08/05 10:24:49;;;;;;;13.00;11.37;;;20.00;99.90;;;;;;5061815;28;20427;-69
2023/08/05 10:27:14;;;;;;;12.13;11.03;;;20.00;99.90;;;;;;5064669;28;20450;-69
2023/08/05 10:29:52;;;;;;;11.73;10.63;;;20.00;99.90;;;;;;5075493;28;20509;-69
2023/08/05 10:32:31;;;;;;;12.70;10.60;;;20.00;99.90;;;;;;5086218;28;20191;-69
2023/08/05 10:35:38;;;;;;;12.20;10.60;;;20.00;99.90;;;;;;5086522;28;20406;-69
2023/08/05 10:38:06;;;;;;;12.40;10.47;;;20.10;99.90;;;;;;5087034;28;20453;-69
2023/08/05 10:40:56;;;;;;;12.50;11.30;;;20.10;99.90;;;;;;5085837;28;20418;-69
2023/08/05 10:43:30;;;;;;;12.30;11.00;;;20.00;99.90;;;;;;5085918;28;21070;-69
2023/08/05 10:46:06;;;;;;;11.70;10.60;;;20.00;99.90;;;;;;5054672;28;20511;-69
2023/08/05 10:48:42;;;;;;;11.60;10.50;;;20.10;99.90;;;;;;5084888;28;21140;-69
2023/08/05 10:51:13;;;;;;;11.63;10.53;;;20.10;99.90;;;;;;5068275;28;20418;-69
2023/08/05 10:53:43;;;;;;;11.63;10.53;;;20.20;99.90;;;;;;5086296;28;20415;-69
2023/08/05 10:56:13;;;;;;;12.00;10.90;;;20.10;99.90;;;;;;5086301;28;20422;-68
2023/08/05 10:58:49;;;;;;;10.90;9.90;;;20.10;99.90;;;;;;5086058;28;20470;-69
2023/08/05 11:01:16;;;;;;;12.00;10.80;;;20.00;99.90;;;;;;5085530;28;20419;-68
2023/08/05 11:03:56;;;;;;;10.97;9.97;;;20.00;99.90;;;;;;5085961;28;20413;-68
2023/08/05 11:06:24;;;;;;;12.00;10.87;;;20.00;99.90;;;;;;5067094;28;20430;-69
2023/08/05 11:08:50;;;;;;;11.67;10.67;;;20.00;99.90;;;;;;5068065;28;20415;-69
2023/08/05 11:11:16;;;;;;;11.20;10.10;;;20.10;99.90;;;;;;5085584;28;20487;-68
2023/08/05 11:13:47;;;;;;;10.53;9.60;;;20.30;99.90;;;;;;5086092;28;21186;-69
2023/08/05 11:16:15;;;;;;;9.33;8.53;;;20.50;99.90;;;;;;5075871;28;20443;-68
2023/08/05 11:18:42;;;;;;;10.50;9.53;;;20.80;99.90;;;;;;5073384;28;20484;-69
2023/08/05 11:21:11;;;;;;;10.00;9.00;;;20.90;99.90;;;;;;5065281;28;20416;-69
2023/08/05 11:23:38;;;;;;;9.37;8.57;;;20.90;99.90;;;;;;5065451;28;20518;-69
2023/08/05 11:26:05;;;;;;;9.70;8.80;;;21.10;99.90;;;;;;5065355;28;20561;-69
2023/08/05 11:28:31;;;;;;;8.70;7.90;;;21.10;99.90;;;;;;5064800;28;20447;-68
2023/08/05 11:30:58;;;;;;;10.50;9.47;;;21.10;99.90;;;;;;5085207;28;20433;-68
2023/08/05 11:33:23;;;;;;;9.87;8.87;;;21.10;99.90;;;;;;5085062;28;20449;-68
2023/08/05 11:35:52;;;;;;;10.63;9.63;;;21.00;99.90;;;;;;5085645;28;20436;-68
2023/08/05 11:38:18;;;;;;;9.70;8.80;;;20.90;99.90;;;;;;5068560;28;20530;-69
2023/08/05 11:40:47;;;;;;;10.30;9.30;;;20.70;99.90;;;;;;5089189;28;20421;-68
2023/08/05 11:43:19;;;;;;;10.73;9.67;;;20.50;99.90;;;;;;5088626;28;20422;-68
2023/08/05 11:45:45;;;;;;;10.13;9.30;;;20.40;99.90;;;;;;5085338;28;20437;-69
2023/08/05 11:48:26;;;;;;;10.00;9.10;;;20.30;99.90;;;;;;5074871;28;20924;-69
2023/08/05 11:51:05;;;;;;;10.77;9.67;;;20.30;99.90;;;;;;5078882;28;20446;-69
2023/08/05 11:53:31;;;;;;;9.50;8.70;;;20.40;99.90;;;;;;5084922;28;20429;-68
2023/08/05 11:55:56;;;;;;;9.57;8.67;;;20.40;99.90;;;;;;5067242;28;20410;-69
2023/08/05 11:58:26;;;;;;;9.80;9.00;;;20.30;99.90;;;;;;5084565;28;20454;-68
2023/08/05 12:00:57;;;;;;;9.90;9.00;;;20.30;99.90;;;;;;5066521;28;20672;-69
2023/08/05 12:03:30;;;;;;;9.37;8.57;;;20.20;99.90;;;;;;5083961;28;20418;-69
2023/08/05 12:06:00;;;;;;;9.37;8.47;;;20.20;99.90;;;;;;5084638;28;20415;-69
2023/08/05 12:08:38;;;;;;;7.97;7.27;;;20.10;99.90;;;;;;5084331;28;21165;-68
2023/08/05 12:11:03;;;;;;;8.40;7.70;;;20.10;99.90;;;;;;5066336;28;20961;-69
2023/08/05 12:13:32;;;;;;;9.10;7.93;;;20.10;99.90;;;;;;5084740;28;20406;-69
2023/08/05 12:15:58;;;;;;;10.23;9.33;;;20.10;99.90;;;;;;5066881;28;20218;-69
2023/08/05 12:18:24;;;;;;;8.60;7.90;;;20.00;99.90;;;;;;5084147;28;20556;-68
2023/08/05 12:20:49;;;;;;;9.17;8.20;;;20.00;99.90;;;;;;5066720;28;21082;-68
2023/08/05 12:23:15;;;;;;;9.20;8.40;;;20.00;99.90;;;;;;5084063;28;20699;-69
2023/08/05 12:25:41;;;;;;;8.13;7.40;;;20.00;99.90;;;;;;5084201;28;20172;-70
2023/08/05 12:28:06;;;;;;;8.73;7.93;;;20.00;99.90;;;;;;5066090;28;20172;-69
2023/08/05 12:30:32;;;;;;;7.93;7.00;;;20.00;99.90;;;;;;5075839;28;20250;-68
2023/08/05 12:32:58;;;;;;;8.53;7.73;;;20.10;99.90;;;;;;5079168;28;20271;-69
2023/08/05 12:35:27;;;;;;;9.07;8.17;;;20.10;99.90;;;;;;5079711;28;20231;-68
2023/08/05 12:37:53;;;;;;;8.10;7.40;;;20.10;99.90;;;;;;5075531;28;20433;-69
2023/08/05 12:40:18;;;;;;;8.00;7.20;;;20.10;99.90;;;;;;5083901;28;20450;-69